createdAt,value
2023-01-20T00:03:31.373Z,4.60
2023-01-20T00:08:32.987Z,4.90
2023-01-20T00:13:35.731Z,4.50
2023-01-20T00:18:38.537Z,5.60
2023-01-20T00:23:40.957Z,5.60
2023-01-20T00:28:43.483Z,5.30
2023-01-20T00:33:45.992Z,5.60
2023-01-20T00:38:47.974Z,5.47
2023-01-20T00:43:49.796Z,4.60
2023-01-20T00:48:51.401Z,4.93
2023-01-20T00:53:52.995Z,4.83
2023-01-20T00:58:57.052Z,4.60
2023-01-20T01:03:58.628Z,5.13
2023-01-20T01:09:00.230Z,4.63
2023-01-20T01:14:01.831Z,4.40
2023-01-20T01:19:03.482Z,4.57
2023-01-20T01:24:05.065Z,4.60
2023-01-20T01:29:06.683Z,4.63
2023-01-20T01:34:08.227Z,4.70
2023-01-20T01:39:09.983Z,4.73
2023-01-20T01:44:13.638Z,5.17
2023-01-20T01:49:22.633Z,4.57
2023-01-20T01:54:28.333Z,5.10
2023-01-20T01:59:30.190Z,4.70
2023-01-20T02:04:33.817Z,5.40
2023-01-20T02:09:35.945Z,5.17
2023-01-20T02:14:41.518Z,5.67
2023-01-20T02:19:54.952Z,5.23
2023-01-20T02:25:05.525Z,5.07
2023-01-20T02:30:22.658Z,5.40
2023-01-20T02:35:47.203Z,5.37
2023-01-20T02:41:07.186Z,5.73
2023-01-20T02:46:17.065Z,5.57
2023-01-20T02:51:33.026Z,5.80
2023-01-20T02:56:34.953Z,5.40
2023-01-20T03:01:43.984Z,5.43
2023-01-20T03:06:50.025Z,5.57
2023-01-20T03:11:54.976Z,5.67
2023-01-20T03:16:56.641Z,5.50
2023-01-20T03:21:58.476Z,5.63
2023-01-20T03:27:00.156Z,6.00
2023-01-20T03:32:03.126Z,5.67
2023-01-20T03:37:05.081Z,6.00
2023-01-20T03:42:20.300Z,6.40
2023-01-20T03:47:43.351Z,5.37
2023-01-20T03:52:51.117Z,5.83
2023-01-20T03:57:59.375Z,5.27
2023-01-20T04:03:04.407Z,5.93
2023-01-20T04:08:08.086Z,5.20
2023-01-20T04:13:09.677Z,5.87
2023-01-20T04:18:22.781Z,5.23
2023-01-20T04:23:27.256Z,5.30
2023-01-20T04:28:30.272Z,5.73
2023-01-20T04:33:32.749Z,5.40
2023-01-20T04:38:34.483Z,5.60
2023-01-20T04:43:36.061Z,5.53
2023-01-20T04:48:37.669Z,6.17
2023-01-20T04:53:39.330Z,5.93
2023-01-20T04:58:41.881Z,5.87
2023-01-20T05:03:43.449Z,5.60
2023-01-20T05:08:45.125Z,5.77
2023-01-20T05:13:46.860Z,6.50
2023-01-20T05:18:48.770Z,6.77
2023-01-20T05:23:50.342Z,6.03
2023-01-20T05:28:52.502Z,5.53
2023-01-20T05:33:54.375Z,6.00
2023-01-20T05:38:55.927Z,5.83
2023-01-20T05:43:57.644Z,5.57
2023-01-20T05:48:59.229Z,5.70
2023-01-20T05:54:00.808Z,5.83
2023-01-20T05:59:02.388Z,5.90
2023-01-20T06:04:04.230Z,5.70
2023-01-20T06:09:06.661Z,5.30
2023-01-20T06:14:08.318Z,5.37
2023-01-20T06:19:09.877Z,6.10
2023-01-20T06:24:11.655Z,5.03
2023-01-20T06:29:13.255Z,5.37
2023-01-20T06:34:14.895Z,5.27
2023-01-20T06:39:16.859Z,5.03
2023-01-20T06:44:19.191Z,5.23
2023-01-20T06:49:20.836Z,5.80
2023-01-20T06:54:22.637Z,5.30
2023-01-20T06:59:24.138Z,5.07
2023-01-20T07:04:26.172Z,5.30
2023-01-20T07:09:27.761Z,5.53
2023-01-20T07:14:31.131Z,5.23
2023-01-20T07:19:33.580Z,5.43
2023-01-20T07:24:35.252Z,5.47
2023-01-20T07:29:37.951Z,5.97
2023-01-20T07:34:39.708Z,5.73
2023-01-20T07:39:42.152Z,5.90
2023-01-20T07:44:43.882Z,5.37
2023-01-20T07:49:45.416Z,5.37
2023-01-20T07:54:47.071Z,5.70
2023-01-20T07:59:48.587Z,5.50
2023-01-20T08:04:50.330Z,5.60
2023-01-20T08:09:51.924Z,5.20
2023-01-20T08:14:53.707Z,4.90
2023-01-20T08:19:55.415Z,5.17
2023-01-20T08:24:56.993Z,5.20
2023-01-20T08:29:59.616Z,5.10
2023-01-20T08:35:01.438Z,4.97
2023-01-20T08:40:05.818Z,5.03
2023-01-20T08:45:09.076Z,4.43
2023-01-20T08:50:11.972Z,5.63
2023-01-20T08:55:13.728Z,5.37
2023-01-20T09:00:16.111Z,4.90
2023-01-20T09:05:17.764Z,5.47
2023-01-20T09:10:19.881Z,5.07
2023-01-20T09:15:25.482Z,5.10
2023-01-20T09:20:28.853Z,5.73
2023-01-20T09:25:30.487Z,5.00
2023-01-20T09:30:32.478Z,5.20
2023-01-20T09:35:34.085Z,5.37
2023-01-20T09:41:02.718Z,5.10
2023-01-20T09:46:18.052Z,5.10
2023-01-20T09:51:43.942Z,5.63
2023-01-20T09:56:47.451Z,5.20
2023-01-20T10:01:52.844Z,5.03
2023-01-20T10:07:03.695Z,5.23
2023-01-20T10:12:15.802Z,5.00
2023-01-20T10:17:39.463Z,5.43
2023-01-20T10:22:45.761Z,4.67
2023-01-20T10:27:55.967Z,4.57
2023-01-20T10:33:10.597Z,4.70
2023-01-20T10:38:21.699Z,4.90
2023-01-20T10:43:23.503Z,4.70
2023-01-20T10:48:39.194Z,4.80
2023-01-20T10:54:09.799Z,5.20
2023-01-20T10:59:16.944Z,4.87
2023-01-20T11:04:20.055Z,4.63
2023-01-20T11:09:34.438Z,5.10
2023-01-20T11:14:36.146Z,5.03
2023-01-20T11:20:00.343Z,5.33
2023-01-20T11:25:04.120Z,4.60
2023-01-20T11:30:23.621Z,4.30
2023-01-20T11:35:26.239Z,5.30
2023-01-20T11:40:29.170Z,4.57
2023-01-20T11:45:32.533Z,4.30
2023-01-20T11:50:38.533Z,4.50
2023-01-20T11:55:50.019Z,5.10
2023-01-20T12:00:58.879Z,4.40
2023-01-20T12:06:26.464Z,4.73
2023-01-20T12:11:32.520Z,4.33
2023-01-20T12:16:34.703Z,4.50
2023-01-20T12:21:43.540Z,4.27
2023-01-20T12:26:45.077Z,3.73
2023-01-20T12:31:50.096Z,3.97
2023-01-20T12:37:29.549Z,4.27
2023-01-20T12:42:59.078Z,4.70
2023-01-20T12:48:05.519Z,4.83
2023-01-20T12:53:14.345Z,4.30
2023-01-20T12:58:27.197Z,4.77
2023-01-20T13:04:06.578Z,4.43
2023-01-20T13:09:34.006Z,5.00
2023-01-20T13:14:49.258Z,4.57
2023-01-20T13:19:51.969Z,5.27
2023-01-20T13:24:56.671Z,4.80
2023-01-20T13:30:00.063Z,5.40
2023-01-20T13:35:25.006Z,4.87
2023-01-20T13:40:32.771Z,4.80
2023-01-20T13:45:34.433Z,6.20
2023-01-20T13:50:40.807Z,6.03
2023-01-20T13:55:45.188Z,5.30
2023-01-20T14:00:49.467Z,6.40
2023-01-20T14:05:53.333Z,7.03
2023-01-20T14:11:09.909Z,7.40
2023-01-20T14:16:30.886Z,8.00
2023-01-20T14:21:40.670Z,8.87
2023-01-20T14:26:42.347Z,8.40
2023-01-20T14:31:45.923Z,9.80
2023-01-20T14:36:48.306Z,10.37
2023-01-20T14:41:57.752Z,10.10
2023-01-20T14:47:01.813Z,8.63
2023-01-20T14:52:04.598Z,9.73
2023-01-20T14:57:25.342Z,9.73
2023-01-20T15:02:35.585Z,10.50
2023-01-20T15:07:37.930Z,9.97
2023-01-20T15:12:48.709Z,10.60
2023-01-20T15:18:09.636Z,9.30
2023-01-20T15:23:21.303Z,9.87
2023-01-20T15:28:27.609Z,10.00
2023-01-20T15:33:29.228Z,9.57
2023-01-20T15:38:32.017Z,9.17
2023-01-20T15:43:33.567Z,8.47
2023-01-20T15:48:35.189Z,9.30
2023-01-20T15:53:36.932Z,9.60
2023-01-20T15:58:38.696Z,8.70
2023-01-20T16:03:40.440Z,9.33
2023-01-20T16:08:46.083Z,9.70
2023-01-20T16:13:47.978Z,8.90
2023-01-20T16:18:50.087Z,8.43
2023-01-20T16:23:51.632Z,8.77
2023-01-20T16:28:55.293Z,9.40
2023-01-20T16:33:56.818Z,9.90
2023-01-20T16:38:58.438Z,9.80
2023-01-20T16:44:00.103Z,9.10
2023-01-20T16:49:02.959Z,9.30
2023-01-20T16:54:04.848Z,9.33
2023-01-20T16:59:07.304Z,8.67
2023-01-20T17:04:10.940Z,8.83
2023-01-20T17:09:13.929Z,8.57
2023-01-20T17:14:15.729Z,8.10
2023-01-20T17:19:17.846Z,8.00
2023-01-20T17:24:19.446Z,8.23
2023-01-20T17:29:21.916Z,8.37
2023-01-20T17:34:23.578Z,7.97
2023-01-20T17:39:25.100Z,7.33
2023-01-20T17:44:26.793Z,7.30
2023-01-20T17:49:28.326Z,7.47
2023-01-20T17:54:29.904Z,7.53
2023-01-20T17:59:31.427Z,7.77
2023-01-20T18:04:32.946Z,7.37
2023-01-20T18:09:34.516Z,8.00
2023-01-20T18:14:36.109Z,7.73
2023-01-20T18:19:37.809Z,7.47
2023-01-20T18:24:39.392Z,7.87
2023-01-20T18:29:40.929Z,8.17
2023-01-20T18:34:42.445Z,7.60
2023-01-20T18:39:43.998Z,8.37
2023-01-20T18:44:45.561Z,7.80
2023-01-20T18:49:47.221Z,8.07
2023-01-20T18:54:48.799Z,7.87
2023-01-20T18:59:50.392Z,8.67
2023-01-20T19:04:52.009Z,9.00
2023-01-20T19:09:53.519Z,8.67
2023-01-20T19:14:55.255Z,8.80
2023-01-20T19:19:56.751Z,9.80
2023-01-20T19:24:58.943Z,9.47
2023-01-20T19:30:00.597Z,10.03
2023-01-20T19:35:02.164Z,11.00
2023-01-20T19:40:04.181Z,11.40
2023-01-20T19:45:06.358Z,11.33
2023-01-20T19:50:10.243Z,10.80
2023-01-20T19:55:11.792Z,12.67
2023-01-20T20:00:13.803Z,12.53
2023-01-20T20:05:16.805Z,13.10
2023-01-20T20:10:18.961Z,13.13
2023-01-20T20:15:20.721Z,12.23
2023-01-20T20:20:22.316Z,13.33
2023-01-20T20:25:23.950Z,12.90
2023-01-20T20:30:25.643Z,13.20
2023-01-20T20:35:27.754Z,13.87
2023-01-20T20:40:29.342Z,12.30
2023-01-20T20:45:31.170Z,12.77
2023-01-20T20:50:33.502Z,13.80
2023-01-20T20:55:39.990Z,13.77
2023-01-20T21:00:41.632Z,12.60
2023-01-20T21:05:49.368Z,13.07
2023-01-20T21:10:52.152Z,12.43
2023-01-20T21:16:01.213Z,12.70
2023-01-20T21:21:04.341Z,13.37
2023-01-20T21:26:09.298Z,13.23
2023-01-20T21:31:13.054Z,13.23
2023-01-20T21:36:14.982Z,13.53
2023-01-20T21:41:17.333Z,14.57
2023-01-20T21:46:19.192Z,13.90
2023-01-20T21:51:39.575Z,13.90
2023-01-20T21:56:41.219Z,13.67
2023-01-20T22:01:42.817Z,12.90
2023-01-20T22:06:44.770Z,13.10
2023-01-20T22:11:46.307Z,13.20
2023-01-20T22:16:47.996Z,12.53
2023-01-20T22:21:49.623Z,13.80
2023-01-20T22:26:51.703Z,13.33
2023-01-20T22:31:54.424Z,13.87
2023-01-20T22:36:57.492Z,15.17
2023-01-20T22:41:59.049Z,14.83
2023-01-20T22:47:00.820Z,13.27
2023-01-20T22:52:02.347Z,13.97
2023-01-20T22:57:03.928Z,13.57
2023-01-20T23:02:05.678Z,13.30
2023-01-20T23:07:07.415Z,13.17
2023-01-20T23:12:09.050Z,13.93
2023-01-20T23:17:10.706Z,13.60
2023-01-20T23:22:12.297Z,13.10
2023-01-20T23:27:14.179Z,13.50
2023-01-20T23:32:15.836Z,13.90
2023-01-20T23:37:17.431Z,13.40
2023-01-20T23:42:19.016Z,14.47
2023-01-20T23:47:20.782Z,14.00
2023-01-20T23:52:23.145Z,13.20
2023-01-20T23:57:24.718Z,13.20
